createdAt,value
2022-08-30T00:00:03.044Z,22.66
2022-08-30T00:04:07.216Z,22.76
2022-08-30T00:08:09.219Z,22.78
2022-08-30T00:12:11.045Z,22.59
2022-08-30T00:16:13.278Z,22.46
2022-08-30T00:20:18.284Z,22.44
2022-08-30T00:24:19.887Z,22.48
2022-08-30T00:28:21.484Z,22.44
2022-08-30T00:32:23.953Z,22.33
2022-08-30T00:36:25.686Z,22.30
2022-08-30T00:40:28.508Z,22.26
2022-08-30T00:44:30.233Z,22.21
2022-08-30T00:48:35.890Z,22.20
2022-08-30T00:52:41.974Z,22.14
2022-08-30T00:56:43.580Z,22.06
2022-08-30T01:00:45.318Z,22.04
2022-08-30T01:04:47.862Z,22.05
2022-08-30T01:08:49.493Z,22.06
2022-08-30T01:12:52.448Z,22.02
2022-08-30T01:16:56.608Z,21.96
2022-08-30T01:21:07.407Z,21.93
2022-08-30T01:25:10.960Z,21.85
2022-08-30T01:29:17.467Z,21.68
2022-08-30T01:33:22.404Z,21.58
2022-08-30T01:37:30.056Z,21.58
2022-08-30T01:41:34.411Z,21.51
2022-08-30T01:45:36.042Z,21.48
2022-08-30T01:49:38.522Z,21.42
2022-08-30T01:53:41.570Z,21.34
2022-08-30T01:57:43.213Z,21.33
2022-08-30T02:01:44.880Z,21.27
2022-08-30T02:05:46.569Z,21.22
2022-08-30T02:09:48.173Z,21.22
2022-08-30T02:13:50.663Z,21.16
2022-08-30T02:17:52.291Z,21.05
2022-08-30T02:21:53.854Z,20.97
2022-08-30T02:25:55.517Z,20.91
2022-08-30T02:29:57.153Z,20.94
2022-08-30T02:33:58.792Z,20.88
2022-08-30T02:38:00.225Z,20.76
2022-08-30T02:42:02.140Z,20.66
2022-08-30T02:46:03.974Z,20.69
2022-08-30T02:50:06.691Z,20.68
2022-08-30T02:54:08.352Z,20.64
2022-08-30T02:58:10.937Z,20.58
2022-08-30T03:02:12.869Z,20.50
2022-08-30T03:06:15.069Z,20.44
2022-08-30T03:10:16.978Z,20.41
2022-08-30T03:14:18.590Z,20.42
2022-08-30T03:18:21.476Z,20.42
2022-08-30T03:22:23.225Z,20.41
2022-08-30T03:26:24.780Z,20.41
2022-08-30T03:30:26.611Z,20.41
2022-08-30T03:34:28.160Z,20.33
2022-08-30T03:38:31.040Z,20.26
2022-08-30T03:42:32.806Z,20.20
2022-08-30T03:46:37.199Z,20.10
2022-08-30T03:50:40.260Z,20.04
2022-08-30T03:54:41.839Z,20.05
2022-08-30T03:58:43.838Z,20.10
2022-08-30T04:02:45.481Z,20.10
2022-08-30T04:06:47.119Z,20.01
2022-08-30T04:10:49.058Z,19.98
2022-08-30T04:14:50.894Z,20.00
2022-08-30T04:18:52.756Z,19.92
2022-08-30T04:22:54.413Z,19.78
2022-08-30T04:26:56.029Z,19.75
2022-08-30T04:30:57.662Z,19.68
2022-08-30T04:34:59.769Z,19.72
2022-08-30T04:39:01.358Z,19.65
2022-08-30T04:43:04.159Z,19.62
2022-08-30T04:47:05.773Z,19.61
2022-08-30T04:51:10.252Z,19.55
2022-08-30T04:55:15.680Z,19.43
2022-08-30T04:59:19.735Z,19.38
2022-08-30T05:03:21.321Z,19.35
2022-08-30T05:07:23.080Z,19.43
2022-08-30T05:11:24.683Z,19.47
2022-08-30T05:15:26.290Z,19.49
2022-08-30T05:19:27.860Z,19.42
2022-08-30T05:23:29.418Z,19.31
2022-08-30T05:27:31.478Z,19.32
2022-08-30T05:31:36.043Z,19.32
2022-08-30T05:35:38.328Z,19.30
2022-08-30T05:39:50.969Z,19.35
2022-08-30T05:43:57.284Z,19.34
2022-08-30T05:47:58.942Z,19.30
2022-08-30T05:52:00.512Z,19.27
2022-08-30T05:56:04.763Z,19.25
2022-08-30T06:00:09.793Z,19.24
2022-08-30T06:04:14.509Z,19.24
2022-08-30T06:08:16.188Z,19.28
2022-08-30T06:12:17.946Z,19.32
2022-08-30T06:16:23.009Z,19.43
2022-08-30T06:20:24.942Z,19.58
2022-08-30T06:24:41.129Z,19.62
2022-08-30T06:28:49.157Z,19.65
2022-08-30T06:32:50.728Z,19.70
2022-08-30T06:36:52.391Z,19.80
2022-08-30T06:40:54.203Z,19.94
2022-08-30T06:44:55.816Z,20.00
2022-08-30T06:48:57.465Z,20.08
2022-08-30T06:53:05.551Z,20.15
2022-08-30T06:57:07.244Z,20.25
2022-08-30T07:01:18.669Z,20.33
2022-08-30T07:05:23.507Z,20.37
2022-08-30T07:09:25.244Z,20.51
2022-08-30T07:13:28.174Z,20.58
2022-08-30T07:17:48.204Z,20.66
2022-08-30T07:21:50.459Z,20.78
2022-08-30T07:25:52.013Z,21.00
2022-08-30T07:29:53.831Z,21.16
2022-08-30T07:33:55.973Z,21.21
2022-08-30T07:37:58.523Z,21.31
2022-08-30T07:42:00.351Z,21.38
2022-08-30T07:46:07.211Z,21.45
2022-08-30T07:50:09.462Z,21.46
2022-08-30T07:54:11.145Z,21.43
2022-08-30T07:58:12.736Z,21.45
2022-08-30T08:02:14.396Z,21.63
2022-08-30T08:06:18.523Z,21.81
2022-08-30T08:10:20.266Z,22.01
2022-08-30T08:14:23.551Z,22.27
2022-08-30T08:18:25.324Z,22.49
2022-08-30T08:22:26.951Z,22.74
2022-08-30T08:26:28.596Z,22.93
2022-08-30T08:30:34.523Z,23.06
2022-08-30T08:34:36.877Z,23.21
2022-08-30T08:38:38.950Z,23.42
2022-08-30T08:42:53.846Z,23.60
2022-08-30T08:47:18.642Z,23.75
2022-08-30T08:51:42.506Z,23.92
2022-08-30T08:55:49.532Z,23.99
2022-08-30T08:59:55.039Z,24.09
2022-08-30T09:03:58.883Z,24.18
2022-08-30T09:08:11.410Z,24.23
2022-08-30T09:12:13.687Z,24.30
2022-08-30T09:16:54.756Z,24.44
2022-08-30T09:21:07.209Z,24.70
2022-08-30T09:25:11.956Z,24.97
2022-08-30T09:29:18.094Z,25.11
2022-08-30T09:33:20.998Z,25.29
2022-08-30T09:37:26.757Z,25.48
2022-08-30T09:41:42.471Z,25.59
2022-08-30T09:46:08.307Z,25.63
2022-08-30T09:50:15.059Z,25.89
2022-08-30T09:54:25.457Z,26.06
2022-08-30T09:58:50.315Z,26.23
2022-08-30T10:03:30.054Z,26.28
2022-08-30T10:07:50.807Z,26.46
2022-08-30T10:12:15.474Z,26.60
2022-08-30T10:16:57.214Z,26.69
2022-08-30T10:21:15.528Z,26.78
2022-08-30T10:25:26.450Z,26.84
2022-08-30T10:29:47.001Z,27.05
2022-08-30T10:33:54.781Z,27.03
2022-08-30T10:38:03.293Z,27.05
2022-08-30T10:42:16.411Z,27.23
2022-08-30T10:46:27.083Z,27.34
2022-08-30T10:50:39.071Z,27.61
2022-08-30T10:54:55.076Z,27.71
2022-08-30T10:58:59.031Z,27.88
2022-08-30T11:03:29.243Z,27.76
2022-08-30T11:07:34.705Z,27.49
2022-08-30T11:12:18.505Z,27.43
2022-08-30T11:16:35.268Z,27.30
2022-08-30T11:20:47.145Z,27.24
2022-08-30T11:24:58.897Z,27.42
2022-08-30T11:29:02.729Z,27.74
2022-08-30T11:33:10.526Z,28.02
2022-08-30T11:37:30.704Z,28.30
2022-08-30T11:41:43.137Z,28.65
2022-08-30T11:45:48.502Z,28.77
2022-08-30T11:50:09.796Z,28.89
2022-08-30T11:54:35.649Z,29.25
2022-08-30T11:58:51.858Z,29.44
2022-08-30T12:03:15.141Z,29.52
2022-08-30T12:08:02.019Z,29.64
2022-08-30T12:12:05.463Z,29.76
2022-08-30T12:16:09.461Z,29.85
2022-08-30T12:20:37.985Z,30.00
2022-08-30T12:24:43.972Z,30.16
2022-08-30T12:28:48.845Z,30.28
2022-08-30T12:32:52.943Z,30.42
2022-08-30T12:37:05.136Z,30.60
2022-08-30T12:41:06.681Z,30.82
2022-08-30T12:45:14.531Z,30.91
2022-08-30T12:49:20.278Z,31.09
2022-08-30T12:53:27.759Z,31.09
2022-08-30T12:57:42.826Z,30.85
2022-08-30T13:01:46.814Z,30.85
2022-08-30T13:05:53.055Z,31.09
2022-08-30T13:10:07.657Z,31.22
2022-08-30T13:14:33.303Z,31.16
2022-08-30T13:18:35.201Z,31.40
2022-08-30T13:22:42.635Z,31.65
2022-08-30T13:26:45.197Z,31.91
2022-08-30T13:30:46.769Z,32.07
2022-08-30T13:34:48.742Z,31.91
2022-08-30T13:38:51.388Z,31.74
2022-08-30T13:42:53.910Z,31.45
2022-08-30T13:47:32.014Z,31.19
2022-08-30T13:51:20.838Z,31.00
2022-08-30T13:55:22.429Z,31.00
2022-08-30T13:59:24.633Z,31.34
2022-08-30T14:03:26.343Z,31.68
2022-08-30T14:07:28.179Z,31.87
2022-08-30T14:11:31.374Z,32.09
2022-08-30T14:15:33.382Z,32.27
2022-08-30T14:19:35.131Z,32.32
2022-08-30T14:23:36.801Z,32.28
2022-08-30T14:27:38.407Z,32.50
2022-08-30T14:31:40.753Z,32.68
2022-08-30T14:35:42.372Z,32.72
2022-08-30T14:39:44.036Z,32.69
2022-08-30T14:43:45.701Z,32.87
2022-08-30T14:47:47.453Z,32.90
2022-08-30T14:51:49.717Z,32.85
2022-08-30T14:55:52.764Z,32.83
2022-08-30T14:59:54.336Z,32.85
2022-08-30T15:03:56.557Z,32.96
2022-08-30T15:07:58.272Z,33.05
2022-08-30T15:12:02.459Z,32.58
2022-08-30T15:16:11.462Z,32.40
2022-08-30T15:20:13.876Z,32.05
2022-08-30T15:24:18.957Z,31.74
2022-08-30T15:28:20.742Z,31.74
2022-08-30T15:32:22.421Z,31.91
2022-08-30T15:36:25.169Z,31.98
2022-08-30T15:40:28.244Z,31.75
2022-08-30T15:44:31.681Z,32.03
2022-08-30T15:48:33.275Z,32.35
2022-08-30T15:52:34.885Z,32.54
2022-08-30T15:56:36.485Z,32.68
2022-08-30T16:00:42.797Z,32.76
2022-08-30T16:04:46.453Z,32.47
2022-08-30T16:08:48.478Z,32.13
2022-08-30T16:12:50.054Z,32.02
2022-08-30T16:16:51.647Z,32.09
2022-08-30T16:21:09.348Z,32.16
2022-08-30T16:25:11.012Z,32.06
2022-08-30T16:29:13.759Z,31.94
2022-08-30T16:33:15.361Z,31.54
2022-08-30T16:37:17.282Z,31.35
2022-08-30T16:41:22.238Z,31.30
2022-08-30T16:45:24.083Z,31.13
2022-08-30T16:49:25.843Z,30.88
2022-08-30T16:53:27.531Z,30.67
2022-08-30T16:57:29.431Z,30.49
2022-08-30T17:01:35.402Z,30.44
2022-08-30T17:05:37.308Z,30.40
2022-08-30T17:09:38.883Z,30.30
2022-08-30T17:13:40.734Z,30.15
2022-08-30T17:17:43.186Z,29.99
2022-08-30T17:21:45.341Z,29.86
2022-08-30T17:25:46.938Z,29.78
2022-08-30T17:29:48.620Z,29.66
2022-08-30T17:33:50.399Z,29.54
2022-08-30T17:37:52.624Z,29.44
2022-08-30T17:41:54.780Z,29.27
2022-08-30T17:46:11.223Z,29.11
2022-08-30T17:50:14.054Z,29.02
2022-08-30T17:54:16.085Z,28.91
2022-08-30T17:58:17.761Z,28.76
2022-08-30T18:02:27.831Z,28.65
2022-08-30T18:06:33.197Z,28.57
2022-08-30T18:10:34.929Z,28.45
2022-08-30T18:14:38.549Z,28.40
2022-08-30T18:18:41.092Z,28.32
2022-08-30T18:22:43.178Z,28.21
2022-08-30T18:26:45.179Z,28.13
2022-08-30T18:30:47.446Z,28.02
2022-08-30T18:34:49.074Z,27.96
2022-08-30T18:38:50.628Z,27.88
2022-08-30T18:42:52.250Z,27.83
2022-08-30T18:46:56.379Z,27.78
2022-08-30T18:50:58.811Z,27.76
2022-08-30T18:55:00.403Z,27.72
2022-08-30T18:59:02.273Z,27.68
2022-08-30T19:03:04.203Z,27.63
2022-08-30T19:07:07.995Z,27.58
2022-08-30T19:11:10.693Z,27.49
2022-08-30T19:15:12.989Z,27.43
2022-08-30T19:19:15.076Z,27.34
2022-08-30T19:23:17.776Z,27.31
2022-08-30T19:27:21.667Z,27.27
2022-08-30T19:31:39.150Z,27.20
2022-08-30T19:35:40.827Z,27.09
2022-08-30T19:39:43.037Z,27.05
2022-08-30T19:43:48.366Z,26.97
2022-08-30T19:47:50.753Z,26.91
2022-08-30T19:51:52.335Z,26.84
2022-08-30T19:55:53.896Z,26.76
2022-08-30T19:59:55.904Z,26.69
2022-08-30T20:03:57.505Z,26.64
2022-08-30T20:08:00.052Z,26.64
2022-08-30T20:12:01.918Z,26.61
2022-08-30T20:16:03.773Z,26.57
2022-08-30T20:20:07.732Z,26.57
2022-08-30T20:24:13.265Z,26.57
2022-08-30T20:28:15.327Z,26.54
2022-08-30T20:32:17.329Z,26.53
2022-08-30T20:36:19.324Z,26.41
2022-08-30T20:40:21.871Z,26.34
2022-08-30T20:44:23.878Z,26.23
2022-08-30T20:48:28.628Z,26.17
2022-08-30T20:52:30.226Z,26.13
2022-08-30T20:56:32.205Z,26.12
2022-08-30T21:00:33.894Z,26.11
2022-08-30T21:04:37.812Z,26.12
2022-08-30T21:08:40.252Z,26.08
2022-08-30T21:12:43.045Z,26.06
2022-08-30T21:16:45.000Z,26.03
2022-08-30T21:20:46.649Z,26.00
2022-08-30T21:24:48.277Z,25.96
2022-08-30T21:28:52.038Z,25.91
2022-08-30T21:32:53.641Z,25.89
2022-08-30T21:36:55.356Z,25.82
2022-08-30T21:40:56.952Z,25.78
2022-08-30T21:44:58.668Z,25.78
2022-08-30T21:49:02.484Z,25.74
2022-08-30T21:53:05.763Z,25.74
2022-08-30T21:57:07.583Z,25.74
2022-08-30T22:01:10.361Z,25.71
2022-08-30T22:05:12.262Z,25.71
2022-08-30T22:09:18.872Z,25.71
2022-08-30T22:13:20.451Z,25.72
2022-08-30T22:17:22.120Z,25.71
2022-08-30T22:21:26.112Z,25.74
2022-08-30T22:25:27.703Z,25.71
2022-08-30T22:29:30.426Z,25.69
2022-08-30T22:33:32.729Z,25.72
2022-08-30T22:37:34.341Z,25.64
2022-08-30T22:41:36.847Z,25.63
2022-08-30T22:45:38.672Z,25.64
2022-08-30T22:49:40.265Z,25.61
2022-08-30T22:53:41.928Z,25.59
2022-08-30T22:57:43.620Z,25.59
2022-08-30T23:01:47.003Z,25.59
2022-08-30T23:05:48.731Z,25.59
2022-08-30T23:09:50.365Z,25.59
2022-08-30T23:13:53.207Z,25.51
2022-08-30T23:17:55.661Z,25.46
2022-08-30T23:21:57.376Z,25.41
2022-08-30T23:26:19.408Z,25.41
2022-08-30T23:30:39.619Z,25.41
2022-08-30T23:35:00.170Z,25.42
2022-08-30T23:39:22.007Z,25.36
2022-08-30T23:43:42.473Z,25.36
2022-08-30T23:48:02.809Z,25.31
2022-08-30T23:52:23.947Z,25.29
2022-08-30T23:56:43.808Z,25.27
